sensor_id;sensor_type;location;lat;lon;timestamp;pressure;altitude;pressure_sealevel;temperature
28305;BMP280;15569;42.652;23.040;2023-12-14T00:00:34;91995.53;;;13.02
28305;BMP280;15569;42.652;23.040;2023-12-14T00:02:59;91997.69;;;13.05
28305;BMP280;15569;42.652;23.040;2023-12-14T00:05:25;91982.66;;;13.06
28305;BMP280;15569;42.652;23.040;2023-12-14T00:07:50;91980.56;;;13.03
28305;BMP280;15569;42.652;23.040;2023-12-14T00:10:15;91986.53;;;12.97
28305;BMP280;15569;42.652;23.040;2023-12-14T00:12:43;91995.44;;;12.98
28305;BMP280;15569;42.652;23.040;2023-12-14T00:15:09;92005.69;;;12.99
28305;BMP280;15569;42.652;23.040;2023-12-14T00:17:34;91995.72;;;12.82
28305;BMP280;15569;42.652;23.040;2023-12-14T00:19:59;91998.06;;;12.68
28305;BMP280;15569;42.652;23.040;2023-12-14T00:22:25;91998.34;;;12.78
28305;BMP280;15569;42.652;23.040;2023-12-14T00:24:50;91991.38;;;12.73
28305;BMP280;15569;42.652;23.040;2023-12-14T00:27:16;91999.06;;;12.81
28305;BMP280;15569;42.652;23.040;2023-12-14T00:29:41;91990.78;;;12.77
28305;BMP280;15569;42.652;23.040;2023-12-14T00:32:06;91995.72;;;12.82
28305;BMP280;15569;42.652;23.040;2023-12-14T00:34:32;91988.88;;;12.81
28305;BMP280;15569;42.652;23.040;2023-12-14T00:36:57;91992.53;;;12.64
28305;BMP280;15569;42.652;23.040;2023-12-14T00:39:22;91995.13;;;12.60
28305;BMP280;15569;42.652;23.040;2023-12-14T00:41:48;92000.19;;;12.46
28305;BMP280;15569;42.652;23.040;2023-12-14T00:44:13;91997.75;;;12.32
28305;BMP280;15569;42.652;23.040;2023-12-14T00:46:38;92009.09;;;12.23
28305;BMP280;15569;42.652;23.040;2023-12-14T00:49:04;92003.53;;;12.19
28305;BMP280;15569;42.652;23.040;2023-12-14T00:51:29;92000.75;;;12.17
28305;BMP280;15569;42.652;23.040;2023-12-14T00:53:55;92000.84;;;12.21
28305;BMP280;15569;42.652;23.040;2023-12-14T00:56:20;91988.41;;;12.14
28305;BMP280;15569;42.652;23.040;2023-12-14T00:58:46;92002.47;;;12.30
28305;BMP280;15569;42.652;23.040;2023-12-14T01:01:11;92002.88;;;12.44
28305;BMP280;15569;42.652;23.040;2023-12-14T01:03:36;92001.28;;;12.60
28305;BMP280;15569;42.652;23.040;2023-12-14T01:06:02;92000.22;;;12.72
28305;BMP280;15569;42.652;23.040;2023-12-14T01:08:27;91992.06;;;12.48
28305;BMP280;15569;42.652;23.040;2023-12-14T01:10:53;91979.56;;;12.64
28305;BMP280;15569;42.652;23.040;2023-12-14T01:13:18;91989.66;;;12.58
28305;BMP280;15569;42.652;23.040;2023-12-14T01:15:43;91983.34;;;12.53
28305;BMP280;15569;42.652;23.040;2023-12-14T01:18:09;91983.66;;;12.63
28305;BMP280;15569;42.652;23.040;2023-12-14T01:20:34;91983.38;;;12.79
28305;BMP280;15569;42.652;23.040;2023-12-14T01:22:59;91971.91;;;12.59
28305;BMP280;15569;42.652;23.040;2023-12-14T01:25:25;91970.09;;;12.67
28305;BMP280;15569;42.652;23.040;2023-12-14T01:27:50;91984.13;;;12.82
28305;BMP280;15569;42.652;23.040;2023-12-14T01:30:16;91981.78;;;12.70
28305;BMP280;15569;42.652;23.040;2023-12-14T01:32:41;91981.53;;;12.62
28305;BMP280;15569;42.652;23.040;2023-12-14T01:35:07;91980.78;;;12.59
28305;BMP280;15569;42.652;23.040;2023-12-14T01:37:32;91984.09;;;12.56
28305;BMP280;15569;42.652;23.040;2023-12-14T01:39:57;91987.22;;;12.44
28305;BMP280;15569;42.652;23.040;2023-12-14T01:42:23;91986.75;;;12.52
28305;BMP280;15569;42.652;23.040;2023-12-14T01:44:48;91993.53;;;12.51
28305;BMP280;15569;42.652;23.040;2023-12-14T01:47:14;91975.56;;;12.42
28305;BMP280;15569;42.652;23.040;2023-12-14T01:49:39;91995.97;;;12.41
28305;BMP280;15569;42.652;23.040;2023-12-14T01:52:06;91982.09;;;12.31
28305;BMP280;15569;42.652;23.040;2023-12-14T01:54:32;91981.38;;;12.30
28305;BMP280;15569;42.652;23.040;2023-12-14T01:56:58;91983.75;;;12.18
28305;BMP280;15569;42.652;23.040;2023-12-14T01:59:24;91990.19;;;12.05
28305;BMP280;15569;42.652;23.040;2023-12-14T02:01:53;91964.66;;;11.93
28305;BMP280;15569;42.652;23.040;2023-12-14T02:04:21;91981.03;;;11.95
28305;BMP280;15569;42.652;23.040;2023-12-14T02:06:47;91974.03;;;11.88
28305;BMP280;15569;42.652;23.040;2023-12-14T02:09:12;91961.97;;;11.95
28305;BMP280;15569;42.652;23.040;2023-12-14T02:11:37;91940.47;;;11.81
28305;BMP280;15569;42.652;23.040;2023-12-14T02:14:06;91953.41;;;11.80
28305;BMP280;15569;42.652;23.040;2023-12-14T02:16:32;91947.81;;;11.53
28305;BMP280;15569;42.652;23.040;2023-12-14T02:18:57;91930.94;;;11.35
28305;BMP280;15569;42.652;23.040;2023-12-14T02:21:23;91946.47;;;11.30
28305;BMP280;15569;42.652;23.040;2023-12-14T02:23:48;91950.81;;;11.18
28305;BMP280;15569;42.652;23.040;2023-12-14T02:26:13;91938.84;;;11.27
28305;BMP280;15569;42.652;23.040;2023-12-14T02:28:39;91927.69;;;11.40
28305;BMP280;15569;42.652;23.040;2023-12-14T02:31:05;91942.00;;;11.41
28305;BMP280;15569;42.652;23.040;2023-12-14T02:33:30;91930.75;;;11.50
28305;BMP280;15569;42.652;23.040;2023-12-14T02:35:56;91928.09;;;11.54
28305;BMP280;15569;42.652;23.040;2023-12-14T02:38:21;91939.53;;;11.72
28305;BMP280;15569;42.652;23.040;2023-12-14T02:40:47;91956.47;;;11.69
28305;BMP280;15569;42.652;23.040;2023-12-14T02:43:12;91937.63;;;11.77
28305;BMP280;15569;42.652;23.040;2023-12-14T02:45:38;91950.69;;;11.80
28305;BMP280;15569;42.652;23.040;2023-12-14T02:48:03;91944.53;;;11.80
28305;BMP280;15569;42.652;23.040;2023-12-14T02:50:29;91952.88;;;11.86
28305;BMP280;15569;42.652;23.040;2023-12-14T02:52:54;91963.19;;;11.90
28305;BMP280;15569;42.652;23.040;2023-12-14T02:55:19;91959.13;;;11.91
28305;BMP280;15569;42.652;23.040;2023-12-14T02:57:45;91951.22;;;11.99
28305;BMP280;15569;42.652;23.040;2023-12-14T03:00:11;91962.44;;;11.87
28305;BMP280;15569;42.652;23.040;2023-12-14T03:02:37;91952.66;;;11.78
28305;BMP280;15569;42.652;23.040;2023-12-14T03:05:02;91960.28;;;11.83
28305;BMP280;15569;42.652;23.040;2023-12-14T03:07:28;91955.53;;;11.84
28305;BMP280;15569;42.652;23.040;2023-12-14T03:09:53;91944.06;;;11.88
28305;BMP280;15569;42.652;23.040;2023-12-14T03:12:18;91959.78;;;12.13
28305;BMP280;15569;42.652;23.040;2023-12-14T03:14:44;91959.94;;;12.19
28305;BMP280;15569;42.652;23.040;2023-12-14T03:17:09;91960.03;;;12.23
28305;BMP280;15569;42.652;23.040;2023-12-14T03:19:41;91952.88;;;12.10
28305;BMP280;15569;42.652;23.040;2023-12-14T03:22:07;91963.41;;;12.21
28305;BMP280;15569;42.652;23.040;2023-12-14T03:24:33;91959.44;;;12.01
28305;BMP280;15569;42.652;23.040;2023-12-14T03:26:58;91955.22;;;11.96
28305;BMP280;15569;42.652;23.040;2023-12-14T03:29:24;91957.97;;;11.98
28305;BMP280;15569;42.652;23.040;2023-12-14T03:31:49;91958.13;;;12.02
28305;BMP280;15569;42.652;23.040;2023-12-14T03:34:15;91957.81;;;12.15
28305;BMP280;15569;42.652;23.040;2023-12-14T03:36:40;91946.66;;;12.31
28305;BMP280;15569;42.652;23.040;2023-12-14T03:39:05;91948.00;;;12.30
28305;BMP280;15569;42.652;23.040;2023-12-14T03:41:31;91942.66;;;12.34
28305;BMP280;15569;42.652;23.040;2023-12-14T03:43:57;91931.84;;;12.38
28305;BMP280;15569;42.652;23.040;2023-12-14T03:46:22;91938.56;;;12.35
28305;BMP280;15569;42.652;23.040;2023-12-14T03:48:48;91934.91;;;12.24
28305;BMP280;15569;42.652;23.040;2023-12-14T03:51:13;91939.75;;;12.28
28305;BMP280;15569;42.652;23.040;2023-12-14T03:53:39;91928.78;;;12.26
28305;BMP280;15569;42.652;23.040;2023-12-14T03:56:05;91940.53;;;12.32
28305;BMP280;15569;42.652;23.040;2023-12-14T03:58:30;91947.13;;;12.23
28305;BMP280;15569;42.652;23.040;2023-12-14T04:00:56;91937.28;;;12.12
28305;BMP280;15569;42.652;23.040;2023-12-14T04:03:21;91951.81;;;12.21
28305;BMP280;15569;42.652;23.040;2023-12-14T04:05:47;91945.41;;;12.10
28305;BMP280;15569;42.652;23.040;2023-12-14T04:08:12;91957.22;;;12.19
28305;BMP280;15569;42.652;23.040;2023-12-14T04:10:37;91949.97;;;12.27
28305;BMP280;15569;42.652;23.040;2023-12-14T04:13:03;91951.44;;;12.32
28305;BMP280;15569;42.652;23.040;2023-12-14T04:15:28;91940.88;;;12.44
28305;BMP280;15569;42.652;23.040;2023-12-14T04:17:54;91946.91;;;12.41
28305;BMP280;15569;42.652;23.040;2023-12-14T04:20:19;91945.09;;;12.24
28305;BMP280;15569;42.652;23.040;2023-12-14T04:22:44;91941.84;;;12.29
28305;BMP280;15569;42.652;23.040;2023-12-14T04:25:11;91940.88;;;12.44
28305;BMP280;15569;42.652;23.040;2023-12-14T04:27:36;91924.69;;;12.25
28305;BMP280;15569;42.652;23.040;2023-12-14T04:30:02;91942.00;;;12.61
28305;BMP280;15569;42.652;23.040;2023-12-14T04:32:29;91946.66;;;12.56
28305;BMP280;15569;42.652;23.040;2023-12-14T04:34:55;91953.75;;;12.42
28305;BMP280;15569;42.652;23.040;2023-12-14T04:37:20;91933.66;;;12.55
28305;BMP280;15569;42.652;23.040;2023-12-14T04:39:46;91940.38;;;12.78
28305;BMP280;15569;42.652;23.040;2023-12-14T04:42:11;91946.69;;;12.84
28305;BMP280;15569;42.652;23.040;2023-12-14T04:44:36;91947.31;;;12.83
28305;BMP280;15569;42.652;23.040;2023-12-14T04:47:02;91947.03;;;12.98
28305;BMP280;15569;42.652;23.040;2023-12-14T04:49:27;91953.91;;;13.01
28305;BMP280;15569;42.652;23.040;2023-12-14T04:51:53;91952.66;;;13.06
28305;BMP280;15569;42.652;23.040;2023-12-14T04:54:18;91945.78;;;13.03
28305;BMP280;15569;42.652;23.040;2023-12-14T04:56:47;91949.84;;;13.02
28305;BMP280;15569;42.652;23.040;2023-12-14T04:59:12;91954.50;;;12.98
28305;BMP280;15569;42.652;23.040;2023-12-14T05:01:37;91953.81;;;12.97
28305;BMP280;15569;42.652;23.040;2023-12-14T05:04:03;91951.22;;;13.03
28305;BMP280;15569;42.652;23.040;2023-12-14T05:06:29;91931.91;;;12.93
28305;BMP280;15569;42.652;23.040;2023-12-14T05:08:54;91945.00;;;12.45
28305;BMP280;15569;42.652;23.040;2023-12-14T05:11:20;91948.47;;;12.48
28305;BMP280;15569;42.652;23.040;2023-12-14T05:13:46;91959.38;;;12.22
28305;BMP280;15569;42.652;23.040;2023-12-14T05:16:14;91960.56;;;12.17
28305;BMP280;15569;42.652;23.040;2023-12-14T05:18:40;91953.06;;;12.16
28305;BMP280;15569;42.652;23.040;2023-12-14T05:21:05;91953.22;;;11.98
28305;BMP280;15569;42.652;23.040;2023-12-14T05:23:30;91962.22;;;12.03
28305;BMP280;15569;42.652;23.040;2023-12-14T05:25:56;91951.72;;;12.17
28305;BMP280;15569;42.652;23.040;2023-12-14T05:28:21;91953.63;;;12.12
28305;BMP280;15569;42.652;23.040;2023-12-14T05:30:46;91966.63;;;12.14
28305;BMP280;15569;42.652;23.040;2023-12-14T05:33:12;91979.91;;;12.02
28305;BMP280;15569;42.652;23.040;2023-12-14T05:35:37;91961.69;;;12.08
28305;BMP280;15569;42.652;23.040;2023-12-14T05:38:03;91948.66;;;12.05
28305;BMP280;15569;42.652;23.040;2023-12-14T05:40:28;91968.06;;;12.17
28305;BMP280;15569;42.652;23.040;2023-12-14T05:42:54;91950.53;;;12.24
28305;BMP280;15569;42.652;23.040;2023-12-14T05:45:19;91957.03;;;12.36
28305;BMP280;15569;42.652;23.040;2023-12-14T05:47:45;91959.84;;;12.40
28305;BMP280;15569;42.652;23.040;2023-12-14T05:50:10;91963.34;;;12.43
28305;BMP280;15569;42.652;23.040;2023-12-14T05:52:36;91952.19;;;12.35
28305;BMP280;15569;42.652;23.040;2023-12-14T05:55:03;91965.94;;;12.39
28305;BMP280;15569;42.652;23.040;2023-12-14T05:57:29;91972.22;;;12.43
28305;BMP280;15569;42.652;23.040;2023-12-14T05:59:54;91954.50;;;12.44
28305;BMP280;15569;42.652;23.040;2023-12-14T06:02:19;91970.41;;;12.52
28305;BMP280;15569;42.652;23.040;2023-12-14T06:04:45;91960.94;;;12.55
28305;BMP280;15569;42.652;23.040;2023-12-14T06:07:11;91966.63;;;12.65
28305;BMP280;15569;42.652;23.040;2023-12-14T06:09:36;91972.44;;;12.79
28305;BMP280;15569;42.652;23.040;2023-12-14T06:12:02;91960.19;;;12.80
28305;BMP280;15569;42.652;23.040;2023-12-14T06:14:28;91973.06;;;13.03
28305;BMP280;15569;42.652;23.040;2023-12-14T06:16:54;91976.69;;;13.12
28305;BMP280;15569;42.652;23.040;2023-12-14T06:19:19;91981.00;;;13.21
28305;BMP280;15569;42.652;23.040;2023-12-14T06:21:45;91976.28;;;13.23
28305;BMP280;15569;42.652;23.040;2023-12-14T06:24:10;91981.19;;;13.29
28305;BMP280;15569;42.652;23.040;2023-12-14T06:26:40;91977.22;;;13.34
28305;BMP280;15569;42.652;23.040;2023-12-14T06:29:06;91984.84;;;13.39
28305;BMP280;15569;42.652;23.040;2023-12-14T06:31:32;91981.38;;;13.37
28305;BMP280;15569;42.652;23.040;2023-12-14T06:33:57;91984.94;;;13.43
28305;BMP280;15569;42.652;23.040;2023-12-14T06:36:23;91987.13;;;13.21
28305;BMP280;15569;42.652;23.040;2023-12-14T06:38:52;91974.88;;;12.67
28305;BMP280;15569;42.652;23.040;2023-12-14T06:41:21;91990.69;;;12.73
28305;BMP280;15569;42.652;23.040;2023-12-14T06:43:47;92005.00;;;12.73
28305;BMP280;15569;42.652;23.040;2023-12-14T06:46:13;91998.44;;;12.82
28305;BMP280;15569;42.652;23.040;2023-12-14T06:48:38;92013.38;;;13.07
28305;BMP280;15569;42.652;23.040;2023-12-14T06:51:04;92001.03;;;13.04
28305;BMP280;15569;42.652;23.040;2023-12-14T06:53:29;91995.69;;;13.08
28305;BMP280;15569;42.652;23.040;2023-12-14T06:55:55;91979.91;;;13.04
28305;BMP280;15569;42.652;23.040;2023-12-14T06:58:20;91995.97;;;13.20
28305;BMP280;15569;42.652;23.040;2023-12-14T07:00:46;92016.69;;;13.31
28305;BMP280;15569;42.652;23.040;2023-12-14T07:03:12;92006.03;;;13.13
28305;BMP280;15569;42.652;23.040;2023-12-14T07:05:38;92004.91;;;13.22
28305;BMP280;15569;42.652;23.040;2023-12-14T07:08:04;92006.59;;;13.35
28305;BMP280;15569;42.652;23.040;2023-12-14T07:10:29;92008.81;;;13.43
28305;BMP280;15569;42.652;23.040;2023-12-14T07:12:54;92006.88;;;13.47
28305;BMP280;15569;42.652;23.040;2023-12-14T07:15:20;92012.19;;;13.41
28305;BMP280;15569;42.652;23.040;2023-12-14T07:17:45;92018.44;;;13.46
28305;BMP280;15569;42.652;23.040;2023-12-14T07:20:11;92028.94;;;13.58
28305;BMP280;15569;42.652;23.040;2023-12-14T07:22:37;92025.84;;;13.71
28305;BMP280;15569;42.652;23.040;2023-12-14T07:25:03;92020.41;;;13.71
28305;BMP280;15569;42.652;23.040;2023-12-14T07:27:28;92024.31;;;13.64
28305;BMP280;15569;42.652;23.040;2023-12-14T07:29:54;92013.50;;;13.68
28305;BMP280;15569;42.652;23.040;2023-12-14T07:32:19;92022.44;;;13.71
28305;BMP280;15569;42.652;23.040;2023-12-14T07:34:45;92026.63;;;13.76
28305;BMP280;15569;42.652;23.040;2023-12-14T07:37:10;92034.94;;;13.82
28305;BMP280;15569;42.652;23.040;2023-12-14T07:39:37;92024.88;;;13.88
28305;BMP280;15569;42.652;23.040;2023-12-14T07:42:02;92014.63;;;13.89
28305;BMP280;15569;42.652;23.040;2023-12-14T07:44:28;92016.66;;;13.88
28305;BMP280;15569;42.652;23.040;2023-12-14T07:46:56;92031.25;;;13.99
28305;BMP280;15569;42.652;23.040;2023-12-14T07:49:21;92012.28;;;14.07
28305;BMP280;15569;42.652;23.040;2023-12-14T07:51:49;92038.41;;;14.14
28305;BMP280;15569;42.652;23.040;2023-12-14T07:54:14;92029.00;;;14.21
28305;BMP280;15569;42.652;23.040;2023-12-14T07:56:40;92023.59;;;14.25
28305;BMP280;15569;42.652;23.040;2023-12-14T07:59:06;92009.25;;;14.24
28305;BMP280;15569;42.652;23.040;2023-12-14T08:01:36;92026.06;;;14.45
28305;BMP280;15569;42.652;23.040;2023-12-14T08:04:01;92032.34;;;14.53
28305;BMP280;15569;42.652;23.040;2023-12-14T08:06:27;92033.75;;;14.54
28305;BMP280;15569;42.652;23.040;2023-12-14T08:08:52;92025.06;;;14.64
28305;BMP280;15569;42.652;23.040;2023-12-14T08:11:17;92040.81;;;14.65
28305;BMP280;15569;42.652;23.040;2023-12-14T08:13:43;92034.75;;;14.71
28305;BMP280;15569;42.652;23.040;2023-12-14T08:16:08;92037.63;;;14.79
28305;BMP280;15569;42.652;23.040;2023-12-14T08:18:33;92036.38;;;14.84
28305;BMP280;15569;42.652;23.040;2023-12-14T08:20:59;92033.16;;;14.93
28305;BMP280;15569;42.652;23.040;2023-12-14T08:23:24;92034.50;;;14.94
28305;BMP280;15569;42.652;23.040;2023-12-14T08:25:55;92032.56;;;15.01
28305;BMP280;15569;42.652;23.040;2023-12-14T08:28:24;92033.97;;;15.02
28305;BMP280;15569;42.652;23.040;2023-12-14T08:30:49;92035.41;;;15.05
28305;BMP280;15569;42.652;23.040;2023-12-14T08:33:15;92034.19;;;15.14
28305;BMP280;15569;42.652;23.040;2023-12-14T08:35:40;92038.38;;;15.19
28305;BMP280;15569;42.652;23.040;2023-12-14T08:38:06;92041.94;;;15.27
28305;BMP280;15569;42.652;23.040;2023-12-14T08:40:31;92050.88;;;15.30
28305;BMP280;15569;42.652;23.040;2023-12-14T08:42:57;92046.16;;;15.35
28305;BMP280;15569;42.652;23.040;2023-12-14T08:45:22;92038.59;;;15.33
28305;BMP280;15569;42.652;23.040;2023-12-14T08:47:48;92036.75;;;15.46
28305;BMP280;15569;42.652;23.040;2023-12-14T08:50:13;92035.47;;;15.51
28305;BMP280;15569;42.652;23.040;2023-12-14T08:52:39;92042.41;;;15.56
28305;BMP280;15569;42.652;23.040;2023-12-14T08:55:04;92039.06;;;15.61
28305;BMP280;15569;42.652;23.040;2023-12-14T08:57:30;92034.38;;;15.68
28305;BMP280;15569;42.652;23.040;2023-12-14T08:59:56;92032.50;;;15.80
28305;BMP280;15569;42.652;23.040;2023-12-14T09:02:21;92026.69;;;15.58
28305;BMP280;15569;42.652;23.040;2023-12-14T09:04:47;92031.50;;;15.60
28305;BMP280;15569;42.652;23.040;2023-12-14T09:07:12;92021.81;;;15.53
28305;BMP280;15569;42.652;23.040;2023-12-14T09:09:37;92026.88;;;15.26
28305;BMP280;15569;42.652;23.040;2023-12-14T09:12:03;92021.44;;;15.28
28305;BMP280;15569;42.652;23.040;2023-12-14T09:14:28;92016.16;;;15.41
28305;BMP280;15569;42.652;23.040;2023-12-14T09:16:55;92015.09;;;15.62
28305;BMP280;15569;42.652;23.040;2023-12-14T09:19:20;92020.31;;;15.44
28305;BMP280;15569;42.652;23.040;2023-12-14T09:21:45;92025.09;;;15.43
28305;BMP280;15569;42.652;23.040;2023-12-14T09:24:11;92009.50;;;15.54
28305;BMP280;15569;42.652;23.040;2023-12-14T09:26:36;92025.97;;;15.56
28305;BMP280;15569;42.652;23.040;2023-12-14T09:29:02;92019.28;;;15.67
28305;BMP280;15569;42.652;23.040;2023-12-14T09:31:27;92025.41;;;15.63
28305;BMP280;15569;42.652;23.040;2023-12-14T09:36:32;92031.22;;;15.87
28305;BMP280;15569;42.652;23.040;2023-12-14T09:38:57;92026.63;;;16.02
28305;BMP280;15569;42.652;23.040;2023-12-14T09:41:22;92031.75;;;16.24
28305;BMP280;15569;42.652;23.040;2023-12-14T09:43:48;92025.22;;;15.97
28305;BMP280;15569;42.652;23.040;2023-12-14T09:46:15;92036.25;;;16.05
28305;BMP280;15569;42.652;23.040;2023-12-14T09:48:42;92042.41;;;16.03
28305;BMP280;15569;42.652;23.040;2023-12-14T09:51:08;92044.16;;;15.81
28305;BMP280;15569;42.652;23.040;2023-12-14T09:53:33;92038.09;;;15.88
28305;BMP280;15569;42.652;23.040;2023-12-14T09:55:58;92040.75;;;15.82
28305;BMP280;15569;42.652;23.040;2023-12-14T09:58:24;92031.97;;;15.92
28305;BMP280;15569;42.652;23.040;2023-12-14T10:00:49;92023.13;;;15.95
28305;BMP280;15569;42.652;23.040;2023-12-14T10:03:24;92017.00;;;15.97
28305;BMP280;15569;42.652;23.040;2023-12-14T10:05:52;92030.00;;;15.98
28305;BMP280;15569;42.652;23.040;2023-12-14T10:08:18;92021.25;;;16.08
28305;BMP280;15569;42.652;23.040;2023-12-14T10:10:45;92028.56;;;15.93
28305;BMP280;15569;42.652;23.040;2023-12-14T10:13:11;92032.00;;;15.94
28305;BMP280;15569;42.652;23.040;2023-12-14T10:15:45;92022.31;;;15.87
28305;BMP280;15569;42.652;23.040;2023-12-14T10:18:13;92016.25;;;15.92
28305;BMP280;15569;42.652;23.040;2023-12-14T10:20:46;92017.06;;;16.05
28305;BMP280;15569;42.652;23.040;2023-12-14T10:23:12;92026.09;;;16.11
28305;BMP280;15569;42.652;23.040;2023-12-14T10:25:37;92020.53;;;16.07
28305;BMP280;15569;42.652;23.040;2023-12-14T10:28:03;92027.44;;;16.08
28305;BMP280;15569;42.652;23.040;2023-12-14T10:30:28;92032.28;;;16.16
28305;BMP280;15569;42.652;23.040;2023-12-14T10:32:54;92037.75;;;16.12
28305;BMP280;15569;42.652;23.040;2023-12-14T10:35:19;92040.00;;;15.78
28305;BMP280;15569;42.652;23.040;2023-12-14T10:37:49;92045.19;;;15.18
28305;BMP280;15569;42.652;23.040;2023-12-14T10:40:15;92057.25;;;15.03
28305;BMP280;15569;42.652;23.040;2023-12-14T10:42:44;92063.88;;;14.56
28305;BMP280;15569;42.652;23.040;2023-12-14T10:45:13;92081.81;;;14.31
28305;BMP280;15569;42.652;23.040;2023-12-14T10:50:21;92087.84;;;13.94
28305;BMP280;15569;42.652;23.040;2023-12-14T10:52:47;92090.94;;;13.81
28305;BMP280;15569;42.652;23.040;2023-12-14T10:55:23;92112.31;;;13.61
28305;BMP280;15569;42.652;23.040;2023-12-14T10:57:51;92122.56;;;13.34
28305;BMP280;15569;42.652;23.040;2023-12-14T11:00:17;92130.16;;;13.38
28305;BMP280;15569;42.652;23.040;2023-12-14T11:02:45;92119.22;;;13.38
28305;BMP280;15569;42.652;23.040;2023-12-14T11:05:12;92133.63;;;13.40
28305;BMP280;15569;42.652;23.040;2023-12-14T11:07:52;92137.16;;;13.45
28305;BMP280;15569;42.652;23.040;2023-12-14T11:10:26;92132.06;;;13.59
28305;BMP280;15569;42.652;23.040;2023-12-14T11:15:22;92149.41;;;13.18
28305;BMP280;15569;42.652;23.040;2023-12-14T11:21:01;92157.19;;;13.28
28305;BMP280;15569;42.652;23.040;2023-12-14T11:23:29;92159.16;;;13.25
28305;BMP280;15569;42.652;23.040;2023-12-14T11:26:04;92167.47;;;13.29
28305;BMP280;15569;42.652;23.040;2023-12-14T11:28:31;92156.56;;;13.29
28305;BMP280;15569;42.652;23.040;2023-12-14T11:30:56;92158.28;;;13.19
28305;BMP280;15569;42.652;23.040;2023-12-14T11:33:22;92150.19;;;13.21
28305;BMP280;15569;42.652;23.040;2023-12-14T11:35:50;92166.81;;;13.05
28305;BMP280;15569;42.652;23.040;2023-12-14T11:38:16;92181.66;;;13.00
28305;BMP280;15569;42.652;23.040;2023-12-14T11:40:42;92184.47;;;12.79
28305;BMP280;15569;42.652;23.040;2023-12-14T11:43:08;92194.63;;;12.76
28305;BMP280;15569;42.652;23.040;2023-12-14T11:45:35;92201.97;;;12.72
28305;BMP280;15569;42.652;23.040;2023-12-14T11:48:02;92202.31;;;12.60
28305;BMP280;15569;42.652;23.040;2023-12-14T11:50:30;92204.31;;;12.81
28305;BMP280;15569;42.652;23.040;2023-12-14T11:52:56;92210.34;;;12.56
28305;BMP280;15569;42.652;23.040;2023-12-14T11:55:22;92220.75;;;12.61
28305;BMP280;15569;42.652;23.040;2023-12-14T11:57:48;92213.03;;;12.54
28305;BMP280;15569;42.652;23.040;2023-12-14T12:00:14;92218.34;;;12.50
28305;BMP280;15569;42.652;23.040;2023-12-14T12:02:40;92215.00;;;12.30
28305;BMP280;15569;42.652;23.040;2023-12-14T12:05:06;92215.50;;;12.46
28305;BMP280;15569;42.652;23.040;2023-12-14T12:07:32;92216.56;;;12.58
28305;BMP280;15569;42.652;23.040;2023-12-14T12:09:58;92201.00;;;12.39
28305;BMP280;15569;42.652;23.040;2023-12-14T12:12:24;92210.38;;;12.34
28305;BMP280;15569;42.652;23.040;2023-12-14T12:14:49;92226.13;;;12.59
28305;BMP280;15569;42.652;23.040;2023-12-14T12:17:18;92218.81;;;12.42
28305;BMP280;15569;42.652;23.040;2023-12-14T12:19:45;92221.53;;;12.42
28305;BMP280;15569;42.652;23.040;2023-12-14T12:22:10;92229.19;;;12.48
28305;BMP280;15569;42.652;23.040;2023-12-14T12:24:36;92218.69;;;12.17
28305;BMP280;15569;42.652;23.040;2023-12-14T12:27:02;92228.47;;;12.26
28305;BMP280;15569;42.652;23.040;2023-12-14T12:29:29;92222.66;;;12.35
28305;BMP280;15569;42.652;23.040;2023-12-14T12:31:54;92232.81;;;12.33
28305;BMP280;15569;42.652;23.040;2023-12-14T12:34:20;92237.13;;;12.40
28305;BMP280;15569;42.652;23.040;2023-12-14T12:36:45;92214.75;;;12.22
28305;BMP280;15569;42.652;23.040;2023-12-14T12:39:10;92219.81;;;12.10
28305;BMP280;15569;42.652;23.040;2023-12-14T12:41:36;92226.16;;;12.38
28305;BMP280;15569;42.652;23.040;2023-12-14T12:44:05;92250.81;;;12.42
28305;BMP280;15569;42.652;23.040;2023-12-14T12:46:40;92220.63;;;12.14
28305;BMP280;15569;42.652;23.040;2023-12-14T12:49:06;92229.00;;;12.20
28305;BMP280;15569;42.652;23.040;2023-12-14T12:51:32;92233.69;;;12.18
28305;BMP280;15569;42.652;23.040;2023-12-14T12:53:58;92212.28;;;11.67
28305;BMP280;15569;42.652;23.040;2023-12-14T12:56:26;92264.03;;;12.08
28305;BMP280;15569;42.652;23.040;2023-12-14T12:58:51;92223.81;;;11.65
28305;BMP280;15569;42.652;23.040;2023-12-14T13:01:20;92199.09;;;11.59
28305;BMP280;15569;42.652;23.040;2023-12-14T13:03:47;92251.63;;;11.83
28305;BMP280;15569;42.652;23.040;2023-12-14T13:06:12;92252.91;;;11.80
28305;BMP280;15569;42.652;23.040;2023-12-14T13:08:38;92250.22;;;11.43
28305;BMP280;15569;42.652;23.040;2023-12-14T13:11:03;92230.75;;;11.31
28305;BMP280;15569;42.652;23.040;2023-12-14T13:13:29;92239.59;;;11.32
28305;BMP280;15569;42.652;23.040;2023-12-14T13:15:56;92251.97;;;11.54
28305;BMP280;15569;42.652;23.040;2023-12-14T13:18:21;92246.97;;;11.66
28305;BMP280;15569;42.652;23.040;2023-12-14T13:20:47;92233.50;;;11.51
28305;BMP280;15569;42.652;23.040;2023-12-14T13:23:12;92233.75;;;11.78
28305;BMP280;15569;42.652;23.040;2023-12-14T13:25:38;92220.44;;;11.87
28305;BMP280;15569;42.652;23.040;2023-12-14T13:28:04;92232.69;;;11.88
28305;BMP280;15569;42.652;23.040;2023-12-14T13:30:30;92234.13;;;11.69
28305;BMP280;15569;42.652;23.040;2023-12-14T13:32:56;92231.44;;;11.91
28305;BMP280;15569;42.652;23.040;2023-12-14T13:35:21;92243.69;;;12.11
28305;BMP280;15569;42.652;23.040;2023-12-14T13:37:47;92235.81;;;12.00
28305;BMP280;15569;42.652;23.040;2023-12-14T13:40:12;92237.94;;;12.01
28305;BMP280;15569;42.652;23.040;2023-12-14T13:42:38;92232.56;;;12.03
28305;BMP280;15569;42.652;23.040;2023-12-14T13:45:04;92246.13;;;11.81
28305;BMP280;15569;42.652;23.040;2023-12-14T13:47:29;92234.53;;;11.81
28305;BMP280;15569;42.652;23.040;2023-12-14T13:49:55;92215.94;;;11.75
28305;BMP280;15569;42.652;23.040;2023-12-14T13:52:20;92242.88;;;12.07
28305;BMP280;15569;42.652;23.040;2023-12-14T13:54:45;92250.72;;;12.18
28305;BMP280;15569;42.652;23.040;2023-12-14T13:57:11;92231.91;;;12.05
28305;BMP280;15569;42.652;23.040;2023-12-14T13:59:36;92244.13;;;12.04